M I D A S
Marine Information and Data Acquisition System
Tripno 450 of the Zeeleeuw from 2003-03-21 07:10:06 to 2003-03-21 13:16:12
Back to CruiseResearch ActivitiesStationsMapUnderway DataData graphs

EquipmentUnitsComments
TimeDGPSUTC
LatitudeDGPSDM.mWGS84
LongitudeDGPSDM.mWGS84
SpeedMeteo Stationm/sRelative wind speed
DirectionMeteo StationdegRelative wind direction
TemperatureMeteo Stationdeg CelciusAir temperature
PressureMeteo StationPaAtmospheric pressure
HumidityMeteo Station%Relative humidity
Missing or incorrect values are displayed as -999
Metereological data collected by the RV Zeeleeuw from 2003-03-21 07:10:06 to 2003-03-21 13:16:12
                                                                                    Next 1000 lines
Time Latitude Longitude Speed Direction Temperature Pressure Humidity
2003-03-21 07:10:16 51°13.599 2°56.103 6 60 5.3 102480 79
2003-03-21 07:10:22 51°13.598 2°56.103 7.1 73 5.3 102480 79
2003-03-21 07:10:27 51°13.598 2°56.103 5.9 64 5.3 102480 79
2003-03-21 07:10:32 51°13.598 2°56.103 3.8 74 5.3 102490 79
2003-03-21 07:10:36 51°13.598 2°56.103 4.9 55 5.3 102490 79
2003-03-21 07:10:41 51°13.598 2°56.102 4.7 73 5.3 102490 79
2003-03-21 07:10:46 51°13.598 2°56.102 2.8 55 5.3 102490 79
2003-03-21 07:10:52 51°13.597 2°56.103 4.5 82 5.3 102490 79
2003-03-21 07:10:56 51°13.598 2°56.103 3.9 67 5.3 102490 79
2003-03-21 07:11:02 51°13.598 2°56.104 3.2 52 5.3 102480 79
2003-03-21 07:11:07 51°13.598 2°56.106 2.9 81 5.3 102480 79
2003-03-21 07:11:12 51°13.599 2°56.107 2.7 80 5.3 102480 79
2003-03-21 07:11:16 51°13.6 2°56.108 4.3 60 5.3 102480 79
2003-03-21 07:11:22 51°13.599 2°56.108 4 57 5.3 102480 79
2003-03-21 07:11:27 51°13.6 2°56.108 3.1 61 5.3 102480 79
2003-03-21 07:11:32 51°13.6 2°56.109 3.4 47 5.3 102480 79
2003-03-21 07:11:37 51°13.6 2°56.108 2.9 76 5.3 102480 79
2003-03-21 07:11:42 51°13.6 2°56.106 4.6 61 5.3 102480 79
2003-03-21 07:11:47 51°13.601 2°56.104 4.9 45 5.3 102480 79
2003-03-21 07:11:50 51°13.601 2°56.103 3.6 67 5.3 102480 79
2003-03-21 07:11:56 51°13.602 2°56.098 3.7 85 5.3 102480 79
2003-03-21 07:12:02 51°13.604 2°56.091 2 118 5.3 102480 79
2003-03-21 07:12:08 51°13.605 2°56.084 3.5 118 5.3 102480 79
2003-03-21 07:12:12 51°13.607 2°56.079 2.4 103 5.3 102480 79
2003-03-21 07:12:16 51°13.608 2°56.073 2.9 106 5.3 102480 79
2003-03-21 07:12:22 51°13.61 2°56.063 6.6 75 5.3 102480 79
2003-03-21 07:12:27 51°13.611 2°56.055 5.7 79 5.3 102480 79
2003-03-21 07:12:32 51°13.613 2°56.046 5.3 61 5.3 102480 79
2003-03-21 07:12:37 51°13.614 2°56.036 3.4 116 5.3 102480 79
2003-03-21 07:12:42 51°13.616 2°56.027 3.9 112 5.3 102480 79
2003-03-21 07:12:48 51°13.618 2°56.015 3.4 113 5.3 102480 79
2003-03-21 07:12:52 51°13.62 2°56.007 3.6 101 5.3 102490 79
2003-03-21 07:12:57 51°13.622 2°55.997 3.6 102 5.3 102490 79
2003-03-21 07:13:02 51°13.624 2°55.988 4.8 99 5.3 102480 79
2003-03-21 07:13:08 51°13.625 2°55.976 3.7 123 5.3 102480 79
2003-03-21 07:13:12 51°13.627 2°55.967 3.3 118 5.3 102490 79
2003-03-21 07:13:18 51°13.63 2°55.954 3.2 119 5.3 102490 79
2003-03-21 07:13:22 51°13.632 2°55.945 2.9 107 5.3 102490 79
2003-03-21 07:13:27 51°13.636 2°55.934 3.9 112 5.3 102490 79
2003-03-21 07:13:32 51°13.64 2°55.923 4.7 141 5.3 102480 79
2003-03-21 07:13:36 51°13.643 2°55.915 4 118 5.3 102480 79
2003-03-21 07:13:42 51°13.647 2°55.902 6.6 127 5.3 102480 79
2003-03-21 07:13:48 51°13.651 2°55.89 4.1 102 5.3 102480 79
2003-03-21 07:13:52 51°13.654 2°55.881 3.7 107 5.3 102480 79
2003-03-21 07:13:57 51°13.657 2°55.871 2.9 107 5.3 102480 79
2003-03-21 07:14:02 51°13.661 2°55.861 3.6 136 5.3 102490 79
2003-03-21 07:14:08 51°13.665 2°55.848 2.9 79 5.3 102490 79
2003-03-21 07:14:12 51°13.667 2°55.84 3.4 118 5.3 102480 79
2003-03-21 07:14:17 51°13.67 2°55.83 3.2 102 5.3 102480 79
2003-03-21 07:14:22 51°13.673 2°55.82 3.6 112 5.3 102480 79
2003-03-21 07:14:28 51°13.676 2°55.808 3.4 103 5.3 102480 79
2003-03-21 07:14:32 51°13.678 2°55.8 3.7 104 5.3 102490 79
2003-03-21 07:14:37 51°13.68 2°55.79 3.4 103 5.3 102490 79
2003-03-21 07:14:42 51°13.682 2°55.779 4.5 122 5.3 102490 79
2003-03-21 07:14:47 51°13.684 2°55.769 5.1 85 5.3 102490 79
2003-03-21 07:14:52 51°13.687 2°55.759 4.8 73 5.3 102490 79
2003-03-21 07:14:57 51°13.688 2°55.751 3 61 5.3 102490 79
2003-03-21 07:15:02 51°13.688 2°55.743 2.9 108 5.2 102480 79
2003-03-21 07:15:07 51°13.689 2°55.737 2.5 106 5.2 102480 79
2003-03-21 07:15:11 51°13.689 2°55.732 4.8 104 5.3 102490 79
2003-03-21 07:15:16 51°13.691 2°55.727 3.1 79 5.3 102490 79
2003-03-21 07:15:21 51°13.692 2°55.722 4.1 100 5.3 102480 79
2003-03-21 07:15:27 51°13.692 2°55.718 3.1 67 5.3 102480 79
2003-03-21 07:15:32 51°13.693 2°55.714 2.8 44 5.3 102480 79
2003-03-21 07:15:36 51°13.693 2°55.713 3.7 79 5.3 102480 79
2003-03-21 07:15:42 51°13.693 2°55.712 4 77 5.3 102490 80
2003-03-21 07:15:46 51°13.693 2°55.712 4 59 5.3 102490 80
2003-03-21 07:15:51 51°13.693 2°55.712 4.3 48 5.3 102480 80
2003-03-21 07:15:56 51°13.693 2°55.713 3.9 54 5.3 102480 80
2003-03-21 07:16:02 51°13.694 2°55.715 4.6 33 5.3 102480 80
2003-03-21 07:16:07 51°13.695 2°55.716 4.7 48 5.3 102480 80
2003-03-21 07:16:12 51°13.696 2°55.718 6.2 20 5.3 102480 80
2003-03-21 07:16:17 51°13.698 2°55.72 5.3 14 5.3 102480 80
2003-03-21 07:16:22 51°13.7 2°55.721 4.6 354 5.3 102480 80
2003-03-21 07:16:27 51°13.703 2°55.722 6 353 5.3 102480 80
2003-03-21 07:16:32 51°13.706 2°55.722 6.2 333 5.3 102480 80
2003-03-21 07:16:37 51°13.708 2°55.723 5.7 358 5.3 102480 80
2003-03-21 07:16:42 51°13.712 2°55.723 5.2 359 5.3 102470 80
2003-03-21 07:16:46 51°13.714 2°55.722 4.5 355 5.3 102470 80
2003-03-21 07:16:51 51°13.718 2°55.721 4.7 347 5.3 102480 80
2003-03-21 07:16:56 51°13.722 2°55.72 5 352 5.3 102480 80
2003-03-21 07:17:02 51°13.726 2°55.718 4.7 342 5.3 102480 80
2003-03-21 07:17:06 51°13.729 2°55.716 5.1 2 5.3 102480 80
2003-03-21 07:17:12 51°13.734 2°55.712 3.8 329 5.3 102480 80
2003-03-21 07:17:17 51°13.739 2°55.708 4.4 312 5.3 102480 80
2003-03-21 07:17:21 51°13.742 2°55.705 3.8 298 5.3 102480 80
2003-03-21 07:17:26 51°13.748 2°55.7 4.8 345 5.3 102480 80
2003-03-21 07:17:32 51°13.753 2°55.695 4.5 352 5.3 102480 80
2003-03-21 07:17:36 51°13.757 2°55.692 6.1 3 5.3 102480 80
2003-03-21 07:17:42 51°13.763 2°55.685 6.3 326 5.3 102480 80
2003-03-21 07:17:47 51°13.77 2°55.679 5.4 326 5.3 102480 80
2003-03-21 07:17:51 51°13.775 2°55.674 5 322 5.3 102480 80
2003-03-21 07:17:56 51°13.782 2°55.668 5.6 345 5.3 102480 80
2003-03-21 07:18:02 51°13.789 2°55.66 5.4 328 5.3 102470 80
2003-03-21 07:18:06 51°13.795 2°55.655 5.4 321 5.3 102470 80
2003-03-21 07:18:11 51°13.803 2°55.649 7.2 330 5.3 102480 80
2003-03-21 07:18:16 51°13.81 2°55.643 9.2 324 5.3 102480 80
2003-03-21 07:18:22 51°13.819 2°55.636 8.6 330 5.3 102480 80
2003-03-21 07:18:27 51°13.827 2°55.631 8.6 328 5.3 102480 80
2003-03-21 07:18:31 51°13.834 2°55.625 9.5 328 5.2 102480 79
2003-03-21 07:18:36 51°13.843 2°55.619 8.9 329 5.2 102480 79
2003-03-21 07:18:42 51°13.853 2°55.612 8.4 322 5.2 102480 79
2003-03-21 07:18:47 51°13.863 2°55.605 9.5 325 5.2 102480 79
2003-03-21 07:18:52 51°13.873 2°55.598 8.9 329 5.2 102470 79
2003-03-21 07:18:56 51°13.879 2°55.593 9.6 331 5.2 102470 79
2003-03-21 07:19:01 51°13.887 2°55.588 9.9 321 5.2 102470 79
2003-03-21 07:19:06 51°13.895 2°55.582 10.4 322 5.2 102470 79
2003-03-21 07:19:12 51°13.907 2°55.574 10.4 326 5.2 102470 79
2003-03-21 07:19:16 51°13.914 2°55.569 9 326 5.2 102470 79
2003-03-21 07:19:22 51°13.926 2°55.562 9.3 328 5.2 102470 79
2003-03-21 07:19:27 51°13.934 2°55.555 9.4 332 5.2 102470 79
2003-03-21 07:19:32 51°13.943 2°55.549 9.1 327 5.2 102470 79
2003-03-21 07:19:37 51°13.951 2°55.543 8.1 330 5.2 102470 79
2003-03-21 07:19:41 51°13.958 2°55.538 8.9 338 5.2 102470 79
2003-03-21 07:19:46 51°13.968 2°55.532 8.2 324 5.2 102470 79
2003-03-21 07:19:52 51°13.979 2°55.524 7.5 335 5.2 102470 79
2003-03-21 07:19:57 51°13.989 2°55.517 8.2 333 5.2 102470 79
2003-03-21 07:20:01 51°13.996 2°55.511 8.1 334 5.2 102470 79
2003-03-21 07:20:07 51°14.008 2°55.503 9.7 326 5.2 102470 79
2003-03-21 07:20:11 51°14.016 2°55.498 9.4 324 5.2 102470 79
2003-03-21 07:20:17 51°14.028 2°55.49 9.7 317 5.2 102470 79
2003-03-21 07:20:21 51°14.036 2°55.484 9.8 322 5.2 102470 79
2003-03-21 07:20:27 51°14.051 2°55.474 10.7 318 5.2 102470 79
2003-03-21 07:20:31 51°14.058 2°55.468 10.3 322 5.2 102470 79
2003-03-21 07:20:37 51°14.068 2°55.462 8.4 330 5.2 102470 79
2003-03-21 07:20:42 51°14.075 2°55.457 9.5 332 5.2 102470 79
2003-03-21 07:20:47 51°14.083 2°55.451 9.5 333 5.2 102470 79
2003-03-21 07:20:51 51°14.089 2°55.446 10.6 331 5.2 102460 79
2003-03-21 07:20:56 51°14.097 2°55.441 11.3 326 5.2 102460 79
2003-03-21 07:21:02 51°14.109 2°55.433 11.5 326 5.2 102470 79
2003-03-21 07:21:06 51°14.117 2°55.427 11.2 325 5.2 102470 79
2003-03-21 07:21:11 51°14.125 2°55.421 10 316 5.2 102470 79
2003-03-21 07:21:16 51°14.134 2°55.414 9.5 322 5.2 102470 79
2003-03-21 07:21:22 51°14.145 2°55.406 9.1 327 5.2 102470 79
2003-03-21 07:21:27 51°14.154 2°55.398 9.7 317 5.2 102470 79
2003-03-21 07:21:32 51°14.163 2°55.39 10 320 5.2 102460 79
2003-03-21 07:21:37 51°14.171 2°55.382 9.1 327 5.2 102460 79
2003-03-21 07:21:41 51°14.178 2°55.375 8.5 329 5.1 102460 79
2003-03-21 07:21:46 51°14.187 2°55.366 9.8 321 5.1 102460 79
2003-03-21 07:21:52 51°14.198 2°55.354 9.8 320 5.1 102470 79
2003-03-21 07:21:56 51°14.205 2°55.346 9.7 316 5.1 102470 79
2003-03-21 07:22:02 51°14.216 2°55.333 8.5 309 5.1 102470 79
2003-03-21 07:22:07 51°14.227 2°55.321 7.7 321 5.1 102470 79
2003-03-21 07:22:12 51°14.235 2°55.31 8 317 5.1 102470 79
2003-03-21 07:22:16 51°14.241 2°55.301 8.4 314 5.1 102470 79
2003-03-21 07:22:22 51°14.25 2°55.288 6.8 329 5.1 102470 79
2003-03-21 07:22:27 51°14.257 2°55.276 7.9 320 5.1 102470 79
2003-03-21 07:22:32 51°14.263 2°55.265 7 317 5.1 102470 79
2003-03-21 07:22:37 51°14.27 2°55.252 8.6 319 5.1 102470 79
2003-03-21 07:22:41 51°14.275 2°55.242 7.9 312 5.2 102470 79
2003-03-21 07:22:46 51°14.282 2°55.229 8.9 315 5.2 102470 79
2003-03-21 07:22:52 51°14.29 2°55.214 9.7 310 5.2 102470 79
2003-03-21 07:22:56 51°14.295 2°55.203 7.4 320 5.2 102470 79
2003-03-21 07:23:02 51°14.303 2°55.188 6.7 315 5.2 102470 79
2003-03-21 07:23:07 51°14.311 2°55.176 7.7 307 5.2 102470 79
2003-03-21 07:23:12 51°14.318 2°55.162 8.8 313 5.2 102470 79
2003-03-21 07:23:17 51°14.324 2°55.148 6.5 316 5.2 102470 79
2003-03-21 07:23:22 51°14.33 2°55.132 5.4 341 5.2 102470 79
2003-03-21 07:23:27 51°14.337 2°55.117 8.2 320 5.2 102470 79
2003-03-21 07:23:32 51°14.343 2°55.101 8.9 284 5.2 102470 79
2003-03-21 07:23:37 51°14.349 2°55.084 11.1 294 5.2 102470 79
2003-03-21 07:23:41 51°14.354 2°55.071 9.5 294 5.2 102470 79
2003-03-21 07:23:46 51°14.36 2°55.054 10.9 296 5.2 102470 79
2003-03-21 07:23:52 51°14.367 2°55.034 11.8 300 5.2 102480 79
2003-03-21 07:23:56 51°14.372 2°55.02 11.7 301 5.2 102480 79
2003-03-21 07:24:02 51°14.381 2°55 11.8 301 5.2 102470 79
2003-03-21 07:24:06 51°14.387 2°54.987 12 304 5.2 102470 79
2003-03-21 07:24:12 51°14.396 2°54.968 11.5 303 5.2 102460 79
2003-03-21 07:24:17 51°14.404 2°54.952 11.9 304 5.2 102460 79
2003-03-21 07:24:22 51°14.412 2°54.936 11.6 308 5.2 102450 79
2003-03-21 07:24:27 51°14.42 2°54.921 10.5 310 5.2 102450 79
2003-03-21 07:24:32 51°14.429 2°54.905 11 310 5.2 102460 79
2003-03-21 07:24:37 51°14.437 2°54.888 11.7 320 5.2 102460 79
2003-03-21 07:24:41 51°14.443 2°54.875 12.2 313 5.1 102450 78
2003-03-21 07:24:46 51°14.453 2°54.859 12.4 320 5.1 102450 78
2003-03-21 07:24:52 51°14.464 2°54.842 12.5 323 5.1 102450 79
2003-03-21 07:24:56 51°14.473 2°54.832 12 324 5.1 102450 79
2003-03-21 07:25:02 51°14.486 2°54.818 11.9 320 5.2 102460 79
2003-03-21 07:25:07 51°14.496 2°54.808 11.8 328 5.2 102460 79
2003-03-21 07:25:12 51°14.507 2°54.797 11.7 330 5.1 102460 79
2003-03-21 07:25:17 51°14.518 2°54.789 11.5 335 5.1 102460 79
2003-03-21 07:25:22 51°14.529 2°54.783 11.9 335 5.1 102460 78
2003-03-21 07:25:27 51°14.54 2°54.778 11.8 339 5.1 102460 78
2003-03-21 07:25:32 51°14.552 2°54.774 12.1 342 5.2 102450 79
2003-03-21 07:25:37 51°14.564 2°54.773 12.2 348 5.2 102450 79
2003-03-21 07:25:41 51°14.573 2°54.772 12.2 350 5.2 102460 79
2003-03-21 07:25:46 51°14.584 2°54.774 13.8 351 5.2 102460 79
2003-03-21 07:25:52 51°14.599 2°54.775 14 355 5.2 102460 79
2003-03-21 07:25:56 51°14.609 2°54.777 13.7 354 5.2 102460 79
2003-03-21 07:26:02 51°14.623 2°54.782 14 357 5.2 102460 79
2003-03-21 07:26:07 51°14.634 2°54.786 13.1 359 5.2 102460 79
2003-03-21 07:26:12 51°14.645 2°54.791 13.5 1 5.2 102460 79
2003-03-21 07:26:17 51°14.655 2°54.796 12.9 360 5.2 102460 79
2003-03-21 07:26:22 51°14.664 2°54.801 12.8 4 5.2 102450 79
2003-03-21 07:26:27 51°14.673 2°54.806 12.1 6 5.2 102450 79
2003-03-21 07:26:30 51°14.678 2°54.809 11.8 5 5.2 102450 79
2003-03-21 07:26:36 51°14.688 2°54.814 11.5   5.2 102450 79
2003-03-21 07:26:40 51°14.693 2°54.817 11.5 6 5.2 102450 79
2003-03-21 07:26:46 51°14.701 2°54.821 11.5 3 5.2 102450 79
2003-03-21 07:26:52 51°14.708 2°54.824 11.6 1 5.2 102450 79
2003-03-21 07:26:56 51°14.712 2°54.826 11.6 1 5.2 102450 79
2003-03-21 07:27:01 51°14.718 2°54.827 11   5.2 102450 79
2003-03-21 07:27:07 51°14.724 2°54.829 10.6 357 5.2 102450 79
2003-03-21 07:27:12 51°14.729 2°54.83 10.2 358 5.2 102450 78
2003-03-21 07:27:17 51°14.734 2°54.83 10.8 352 5.2 102450 78
2003-03-21 07:27:22 51°14.739 2°54.83 10.5 351 5.2 102450 78
2003-03-21 07:27:27 51°14.743 2°54.829 10.2 353 5.2 102450 78
2003-03-21 07:27:32 51°14.748 2°54.829 9.8 353 5.1 102460 78
2003-03-21 07:27:37 51°14.752 2°54.828 9.3 351 5.1 102460 78
2003-03-21 07:27:40 51°14.754 2°54.827 10.5 352 5.1 102470 78
2003-03-21 07:27:47 51°14.76 2°54.824 9.6 351 5.1 102470 78
2003-03-21 07:27:52 51°14.764 2°54.823 9.5 349 5.1 102470 78
2003-03-21 07:27:56 51°14.767 2°54.821 8.5 344 5.1 102470 78
2003-03-21 07:28:02 51°14.771 2°54.819 8.1 341 5.1 102470 78
2003-03-21 07:28:07 51°14.775 2°54.816 8.5 339 5.1 102470 78
2003-03-21 07:28:12 51°14.779 2°54.814 8.9 343 5.2 102470 78
2003-03-21 07:28:16 51°14.781 2°54.812 9.6 342 5.2 102470 78
2003-03-21 07:28:22 51°14.785 2°54.809 10 338 5.1 102470 78
2003-03-21 07:28:27 51°14.788 2°54.806 9.8 342 5.1 102470 78
2003-03-21 07:28:32 51°14.791 2°54.803 9.6 341 5.1 102470 79
2003-03-21 07:28:36 51°14.793 2°54.8 8.8 340 5.1 102470 79
2003-03-21 07:28:40 51°14.795 2°54.798 8.8 340 5.1 102470 79
2003-03-21 07:28:46 51°14.799 2°54.795 9.4 339 5.1 102470 79
2003-03-21 07:28:52 51°14.802 2°54.791 8.9 340 5.1 102470 79
2003-03-21 07:28:56 51°14.804 2°54.789 9 337 5.1 102470 79
2003-03-21 07:29:02 51°14.807 2°54.785 9.5 336 5.1 102470 79
2003-03-21 07:29:07 51°14.809 2°54.781 9 337 5.1 102470 79
2003-03-21 07:29:11 51°14.811 2°54.778 9.2 338 5.1 102470 79
2003-03-21 07:29:16 51°14.813 2°54.774 9.2 341 5.1 102470 79
2003-03-21 07:29:22 51°14.815 2°54.77 8.9 338 5.1 102470 79
2003-03-21 07:29:27 51°14.817 2°54.767 8.9 337 5.1 102470 79
2003-03-21 07:29:32 51°14.819 2°54.763 9.1 338 5.1 102470 79
2003-03-21 07:29:37 51°14.821 2°54.76 9.8 336 5.1 102470 79
2003-03-21 07:29:41 51°14.822 2°54.758 9.6 337 5.1 102470 79
2003-03-21 07:29:46 51°14.825 2°54.754 9.2 338 5.1 102470 79
2003-03-21 07:29:52 51°14.829 2°54.75 10 340 5.1 102470 79
2003-03-21 07:29:57 51°14.834 2°54.747 10.4 343 5.1 102470 79
2003-03-21 07:30:01 51°14.839 2°54.745 10.9 348 5.1 102470 79
2003-03-21 07:30:06 51°14.846 2°54.742 11.7 344 5.1 102470 79
2003-03-21 07:30:11 51°14.855 2°54.74 12.1 343 5.1 102460 79
2003-03-21 07:30:16 51°14.865 2°54.737 11.9 340 5.1 102460 79
2003-03-21 07:30:21 51°14.876 2°54.732 13 338 5.1 102470 78
2003-03-21 07:30:27 51°14.889 2°54.726 12.1 333 5.1 102470 78
2003-03-21 07:30:31 51°14.899 2°54.721 12.3 332 5.1 102470 79
2003-03-21 07:30:36 51°14.912 2°54.713 12.5 334 5.1 102470 79
2003-03-21 07:30:41 51°14.924 2°54.704 12.3 334 5.1 102460 79
2003-03-21 07:30:47 51°14.938 2°54.692 12.5 330 5.1 102460 79
2003-03-21 07:30:51 51°14.948 2°54.684 13 328 5.1 102450 79
2003-03-21 07:30:57 51°14.964 2°54.671 12.4 325 5.1 102450 79
2003-03-21 07:31:02 51°14.976 2°54.658 12.1 323 5.1 102460 79
2003-03-21 07:31:07 51°14.988 2°54.643 12.7 321 5.1 102460 79
2003-03-21 07:31:11 51°14.999 2°54.632 12.8 323 5.1 102450 79
2003-03-21 07:31:17 51°15.014 2°54.616 13.5 323 5.1 102450 79
2003-03-21 07:31:21 51°15.025 2°54.605 12 329 5.1 102450 79
2003-03-21 07:31:27 51°15.041 2°54.589 13.1 322 5.1 102450 79
2003-03-21 07:31:31 51°15.051 2°54.578 12.9 321 5.1 102440 79
2003-03-21 07:31:37 51°15.067 2°54.561 13.1 322 5.1 102440 79
2003-03-21 07:31:42 51°15.081 2°54.548 12.4 325 5.1 102440 79
2003-03-21 07:31:47 51°15.094 2°54.534 12.3 325 5.1 102440 79
2003-03-21 07:31:52 51°15.109 2°54.521 13.4 325 5.1 102450 79
2003-03-21 07:31:57 51°15.123 2°54.507 12.6 325 5.1 102450 79
2003-03-21 07:32:01 51°15.134 2°54.496 12.2 323 5.1 102450 79
2003-03-21 07:32:07 51°15.151 2°54.479 12.9 324 5.1 102450 79
2003-03-21 07:32:12 51°15.165 2°54.464 12.8 325 5.1 102450 79
2003-03-21 07:32:17 51°15.18 2°54.45 14.2 326 5.1 102450 79
2003-03-21 07:32:21 51°15.191 2°54.438 13.8 326 5.1 102450 80
2003-03-21 07:32:27 51°15.209 2°54.42 12.6 328 5.1 102450 80
2003-03-21 07:32:31 51°15.221 2°54.407 14 326 5.1 102450 80
2003-03-21 07:32:37 51°15.238 2°54.388 14.2 327 5.1 102450 80
2003-03-21 07:32:41 51°15.25 2°54.375 14.7 326 5.1 102450 80
2003-03-21 07:32:47 51°15.267 2°54.356 14.5 326 5.1 102450 80
2003-03-21 07:32:51 51°15.279 2°54.343 13.7 324 5.1 102440 80
2003-03-21 07:32:57 51°15.296 2°54.324 13.5 328 5.1 102440 80
2003-03-21 07:33:01 51°15.308 2°54.312 14.2 327 5.1 102450 80
2003-03-21 07:33:07 51°15.326 2°54.293 14.1 332 5.1 102450 80
2003-03-21 07:33:11 51°15.338 2°54.28 14 328 5.1 102440 80
2003-03-21 07:33:17 51°15.357 2°54.261 13.6 325 5.1 102440 80
2003-03-21 07:33:21 51°15.368 2°54.247 13.6 326 5 102440 79
2003-03-21 07:33:27 51°15.386 2°54.227 13.5 329 5 102440 79
2003-03-21 07:33:32 51°15.402 2°54.21 13.9 330 5 102450 80
2003-03-21 07:33:37 51°15.417 2°54.193 13.1 326 5 102450 80
2003-03-21 07:33:41 51°15.43 2°54.18 14 325 5.1 102450 80
2003-03-21 07:33:47 51°15.449 2°54.159 13.5 324 5.1 102450 80
2003-03-21 07:33:52 51°15.464 2°54.141 13.4 322 5 102450 80
2003-03-21 07:33:57 51°15.478 2°54.122 13.3 325 5 102450 80
2003-03-21 07:34:01 51°15.489 2°54.106 12.8 325 5.1 102450 80
2003-03-21 07:34:07 51°15.506 2°54.083 13 327 5.1 102450 80
2003-03-21 07:34:12 51°15.521 2°54.064 13.4 327 5 102450 80
2003-03-21 07:34:17 51°15.536 2°54.045 13.1 327 5 102450 80
2003-03-21 07:34:21 51°15.548 2°54.031 12.9 327 5 102450 80
2003-03-21 07:34:27 51°15.567 2°54.01 12.8 329 5 102450 80
2003-03-21 07:34:31 51°15.579 2°53.997 12.9 330 5 102460 80
2003-03-21 07:34:37 51°15.598 2°53.976 13.4 327 5 102460 80
2003-03-21 07:34:41 51°15.611 2°53.963 13.2 328 5 102450 80
2003-03-21 07:34:47 51°15.631 2°53.942 13.2 329 5 102450 80
2003-03-21 07:34:51 51°15.644 2°53.928 13.2 328 5 102460 80
2003-03-21 07:34:57 51°15.663 2°53.907 13.3 329 5 102460 80
2003-03-21 07:35:01 51°15.675 2°53.893 13.1 331 5 102450 80
2003-03-21 07:35:07 51°15.694 2°53.872 13.4 330 5 102450 80
2003-03-21 07:35:11 51°15.707 2°53.858 14.1 331 5 102450 80
2003-03-21 07:35:17 51°15.726 2°53.837 13.9 327 5 102450 80
2003-03-21 07:35:21 51°15.738 2°53.822 13.7 329 5 102450 80
2003-03-21 07:35:27 51°15.757 2°53.801 13.7 327 5 102450 80
2003-03-21 07:35:31 51°15.77 2°53.786 12.6 327 5 102450 80
2003-03-21 07:35:37 51°15.789 2°53.765 12.6 328 5 102450 80
2003-03-21 07:35:41 51°15.802 2°53.751 13.5 333 5 102440 80
2003-03-21 07:35:47 51°15.821 2°53.73 13.6 328 5 102440 80
2003-03-21 07:35:51 51°15.834 2°53.716 13.7 327 5 102440 80
2003-03-21 07:35:57 51°15.853 2°53.695 13.1 326 5 102440 80
2003-03-21 07:36:01 51°15.867 2°53.681 12.7 326 5 102450 80
2003-03-21 07:36:07 51°15.886 2°53.66 12.5 328 5 102450 80
2003-03-21 07:36:11 51°15.899 2°53.646 13.4 330 5 102450 80
2003-03-21 07:36:17 51°15.918 2°53.625 13.7 328 5 102450 80
2003-03-21 07:36:21 51°15.931 2°53.611 13.1 326 5 102450 80
2003-03-21 07:36:27 51°15.95 2°53.589 12.9 324 5 102450 80
2003-03-21 07:36:32 51°15.966 2°53.572 13 327 5 102450 80
2003-03-21 07:36:37 51°15.982 2°53.555 13.6 329 5 102450 80
2003-03-21 07:36:41 51°15.995 2°53.541 13.6 330 5 102450 80
2003-03-21 07:36:46 51°16.011 2°53.524 13.5 326 5 102450 80
2003-03-21 07:36:51 51°16.028 2°53.506 12.9 329 5.1 102450 80
2003-03-21 07:36:57 51°16.047 2°53.486 12.7 328 5.1 102450 80
2003-03-21 07:37:02 51°16.062 2°53.468 13.9 328 5 102450 80
2003-03-21 07:37:06 51°16.075 2°53.454 13.6 324 5 102450 80
2003-03-21 07:37:11 51°16.092 2°53.437 14 325 5 102440 80
2003-03-21 07:37:17 51°16.111 2°53.416 13.3 323 5 102440 80
2003-03-21 07:37:21 51°16.124 2°53.402 13 323 5 102450 80
2003-03-21 07:37:27 51°16.143 2°53.381 12.6 328 5 102450 80
2003-03-21 07:37:31 51°16.156 2°53.367 12.7 329 5 102440 80
2003-03-21 07:37:37 51°16.175 2°53.346 13.5 325 5 102440 80
2003-03-21 07:37:41 51°16.187 2°53.332 12.5 326 5 102440 80
2003-03-21 07:37:47 51°16.206 2°53.311 14.2 322 5 102440 80
2003-03-21 07:37:52 51°16.222 2°53.293 14.1 320 5 102440 80
2003-03-21 07:37:57 51°16.239 2°53.276 12.6 325 5 102440 80
2003-03-21 07:38:01 51°16.252 2°53.263 14.2 323 5 102450 80
2003-03-21 07:38:07 51°16.272 2°53.243 14.2 328 5 102450 80
2003-03-21 07:38:12 51°16.288 2°53.226 13.5 327 5 102450 80
2003-03-21 07:38:17 51°16.305 2°53.208 14.4 323 5 102450 80
2003-03-21 07:38:21 51°16.317 2°53.194 13.5 323 5 102450 80
2003-03-21 07:38:27 51°16.337 2°53.173 13.5 327 5 102450 80
2003-03-21 07:38:32 51°16.352 2°53.155 13.5 320 5 102440 80
2003-03-21 07:38:37 51°16.369 2°53.138 13 329 5 102440 80
2003-03-21 07:38:42 51°16.385 2°53.121 13 330 5 102450 80
2003-03-21 07:38:47 51°16.401 2°53.104 12.9 325 5 102450 80
2003-03-21 07:38:51 51°16.415 2°53.09 13.7 327 5 102450 80
2003-03-21 07:38:57 51°16.434 2°53.069 13.8 319 5 102450 80
2003-03-21 07:39:01 51°16.447 2°53.055 13.3 327 5 102450 80
2003-03-21 07:39:07 51°16.466 2°53.034 12.6 326 5 102450 80
2003-03-21 07:39:12 51°16.482 2°53.016 12.5 328 5 102460 80
2003-03-21 07:39:17 51°16.499 2°53 11.8 325 5 102460 80
2003-03-21 07:39:21 51°16.512 2°52.985 12.5 321 5 102450 80
2003-03-21 07:39:27 51°16.532 2°52.965 12.7 329 5 102450 80
2003-03-21 07:39:32 51°16.548 2°52.947 13 332 5 102460 81
2003-03-21 07:39:37 51°16.564 2°52.93 14 330 5 102460 81
2003-03-21 07:39:41 51°16.578 2°52.917 13.4 331 5 102450 81
2003-03-21 07:39:47 51°16.597 2°52.896 12.5 326 5 102450 81
2003-03-21 07:39:51 51°16.61 2°52.882 12.5 330 5 102450 81
2003-03-21 07:39:57 51°16.629 2°52.861 13.4 332 5 102450 81
2003-03-21 07:40:01 51°16.642 2°52.847 13 331 5 102450 81
2003-03-21 07:40:07 51°16.662 2°52.827 13.4 327 5 102450 81
2003-03-21 07:40:12 51°16.678 2°52.809 13.2 329 5 102450 81
2003-03-21 07:40:17 51°16.694 2°52.792 13.3 328 5 102450 81
2003-03-21 07:40:21 51°16.707 2°52.779 13.2 333 5 102450 81
2003-03-21 07:40:27 51°16.726 2°52.758 13.7 329 5 102450 81
2003-03-21 07:40:32 51°16.742 2°52.742 15.4 332 5 102450 80
2003-03-21 07:40:37 51°16.758 2°52.726 15.1 329 5 102450 80
2003-03-21 07:40:41 51°16.771 2°52.712 14.6 331 5 102450 80
2003-03-21 07:40:47 51°16.79 2°52.693 15.2 332 5 102450 80
2003-03-21 07:40:51 51°16.802 2°52.681 15 330 5 102450 81
2003-03-21 07:40:57 51°16.821 2°52.662 14.2 327 5 102450 81
2003-03-21 07:41:01 51°16.833 2°52.649 14.5 331 5 102450 80
2003-03-21 07:41:07 51°16.853 2°52.631 14.3 327 5 102450 80
2003-03-21 07:41:11 51°16.866 2°52.618 13.3 335 5 102450 80
2003-03-21 07:41:17 51°16.884 2°52.601 14 333 5 102450 80
2003-03-21 07:41:21 51°16.897 2°52.588 13.8 332 4.9 102450 80
2003-03-21 07:41:27 51°16.916 2°52.57 13.8 331 4.9 102450 80
2003-03-21 07:41:32 51°16.933 2°52.554 13.9 333 4.9 102450 80
2003-03-21 07:41:37 51°16.949 2°52.538 14.2 334 4.9 102450 80
2003-03-21 07:41:41 51°16.961 2°52.525 14.1 334 4.9 102450 80
2003-03-21 07:41:47 51°16.981 2°52.506 13.7 335 4.9 102450 80
2003-03-21 07:41:50 51°16.991 2°52.497 13.9 333 4.9 102450 80
2003-03-21 07:41:57 51°17.013 2°52.477 13.4 329 4.9 102450 80
2003-03-21 07:42:01 51°17.026 2°52.465 12.8 327 4.9 102450 80
2003-03-21 07:42:06 51°17.042 2°52.449 13.3 333 4.9 102450 80
2003-03-21 07:42:11 51°17.058 2°52.435 13.2 331 4.9 102450 80
2003-03-21 07:42:17 51°17.078 2°52.418 12.9 332 4.9 102450 80
2003-03-21 07:42:22 51°17.094 2°52.404 12.8 333 4.9 102450 80
2003-03-21 07:42:27 51°17.111 2°52.391 13.1 335 4.9 102450 80
2003-03-21 07:42:32 51°17.128 2°52.377 12.6 333 4.9 102460 80
2003-03-21 07:42:37 51°17.145 2°52.364 11.8 332 4.9 102460 80
2003-03-21 07:42:41 51°17.158 2°52.353 11.7 332 4.9 102450 81
2003-03-21 07:42:47 51°17.178 2°52.335 12.6 333 4.9 102450 81
2003-03-21 07:42:51 51°17.191 2°52.323 12.7 329 4.9 102460 81
2003-03-21 07:42:57 51°17.211 2°52.307 11.9 333 4.9 102460 81
2003-03-21 07:43:02 51°17.228 2°52.293 12.9 330 4.9 102460 81
2003-03-21 07:43:07 51°17.245 2°52.281 13.3 332 4.9 102460 81
2003-03-21 07:43:12 51°17.263 2°52.269 11.8 332 4.9 102470 81
2003-03-21 07:43:17 51°17.28 2°52.256 13.6 333 4.9 102470 81
2003-03-21 07:43:21 51°17.294 2°52.248 13.3 334 4.9 102460 81
2003-03-21 07:43:27 51°17.316 2°52.235 13.7 332 4.9 102460 81
2003-03-21 07:43:32 51°17.334 2°52.226 13.7 334 4.9 102460 82
2003-03-21 07:43:37 51°17.352 2°52.218 15.3 335 4.9 102460 82
2003-03-21 07:43:41 51°17.367 2°52.212 14.6 334 4.9 102460 82
2003-03-21 07:43:47 51°17.389 2°52.204 13.8 337 4.9 102460 82
2003-03-21 07:43:52 51°17.407 2°52.196 13.7 338 4.9 102450 82
2003-03-21 07:43:57 51°17.425 2°52.191 14.2 337 4.9 102450 82
2003-03-21 07:44:01 51°17.44 2°52.187 14.3 336 4.9 102450 82
2003-03-21 07:44:07 51°17.461 2°52.181 15 338 4.9 102450 82
2003-03-21 07:44:12 51°17.479 2°52.176 13.6 333 4.9 102450 82
2003-03-21 07:44:17 51°17.497 2°52.171 15 334 4.9 102450 82
2003-03-21 07:44:22 51°17.515 2°52.166 14.7 333 4.9 102460 82
2003-03-21 07:44:27 51°17.533 2°52.161 14.5 339 4.9 102460 82
2003-03-21 07:44:31 51°17.548 2°52.158 13.7 334 4.9 102440 82
2003-03-21 07:44:37 51°17.57 2°52.153 14.3 336 4.9 102440 82
2003-03-21 07:44:41 51°17.585 2°52.15 14.5 337 4.9 102460 82
2003-03-21 07:44:46 51°17.603 2°52.146 15.4 339 4.9 102460 82
2003-03-21 07:44:51 51°17.622 2°52.143 14 334 4.9 102450 82
2003-03-21 07:44:57 51°17.643 2°52.14 14.7 333 4.9 102450 82
2003-03-21 07:45:02 51°17.662 2°52.137 13.1 335 5 102450 82
2003-03-21 07:45:06 51°17.676 2°52.135 14.7 330 5 102450 82
2003-03-21 07:45:11 51°17.695 2°52.131 14.6 330 5 102450 82
2003-03-21 07:45:17 51°17.718 2°52.127 14 333 5 102450 82
2003-03-21 07:45:21 51°17.732 2°52.124 13.6 332 5 102450 82
2003-03-21 07:45:27 51°17.754 2°52.119 13.8 333 5 102450 82
2003-03-21 07:45:31 51°17.769 2°52.117 14.3 333 5 102450 82
2003-03-21 07:45:37 51°17.791 2°52.114 14.3 336 5 102450 82
2003-03-21 07:45:41 51°17.805 2°52.112 14.6 333 5 102450 82
2003-03-21 07:45:47 51°17.827 2°52.108 14.7 334 5 102450 82
2003-03-21 07:45:52 51°17.845 2°52.105 14.7 336 5.1 102450 82
2003-03-21 07:45:57 51°17.863 2°52.1 14.4 329 5.1 102450 82
2003-03-21 07:46:01 51°17.877 2°52.094 14.6 325 5.1 102450 82
2003-03-21 07:46:07 51°17.898 2°52.083 13 328 5.1 102450 82
2003-03-21 07:46:11 51°17.912 2°52.073 14 324 5.1 102450 82
2003-03-21 07:46:16 51°17.929 2°52.06 12 322 5.1 102450 82
2003-03-21 07:46:21 51°17.945 2°52.046 13.6 323 5.1 102440 82
2003-03-21 07:46:27 51°17.965 2°52.028 13.5 329 5.1 102440 82
2003-03-21 07:46:32 51°17.981 2°52.013 14.3 323 5.1 102450 82
2003-03-21 07:46:37 51°17.997 2°51.996 13.3 319 5.1 102450 82
2003-03-21 07:46:42 51°18.012 2°51.978 13.6 316 5.1 102450 82
2003-03-21 07:46:47 51°18.027 2°51.958 13 311 5.1 102450 82
2003-03-21 07:46:52 51°18.041 2°51.938 11.6 313 5.1 102440 82
2003-03-21 07:46:57 51°18.056 2°51.918 13.6 309 5.1 102440 82
2003-03-21 07:47:01 51°18.067 2°51.9 12.4 308 5.1 102440 81
2003-03-21 07:47:07 51°18.083 2°51.873 11.9 305 5.1 102440 81
2003-03-21 07:47:11 51°18.093 2°51.855 12.4 304 5.1 102440 81
2003-03-21 07:47:17 51°18.108 2°51.825 12.4 301 5.1 102440 81
2003-03-21 07:47:21 51°18.118 2°51.805 11.9 301 5.1 102440 81
2003-03-21 07:47:27 51°18.131 2°51.774 11.4 297 5.1 102440 81
2003-03-21 07:47:30 51°18.137 2°51.757 10.4 298 5.1 102450 81
2003-03-21 07:47:37 51°18.151 2°51.718 10.6 292 5.1 102450 81
2003-03-21 07:47:41 51°18.158 2°51.695 9.8 299 5.1 102440 81
2003-03-21 07:47:47 51°18.169 2°51.661 9.9 296 5.1 102440 81
2003-03-21 07:47:51 51°18.176 2°51.638 9.2 297 5.1 102450 81
2003-03-21 07:47:57 51°18.184 2°51.601 8.8 290 5.1 102450 81
2003-03-21 07:48:01 51°18.189 2°51.577 8.5 289 5.1 102450 81
2003-03-21 07:48:07 51°18.195 2°51.539 8.1 284 5.1 102450 81
2003-03-21 07:48:12 51°18.2 2°51.507 7 286 5.2 102460 81
2003-03-21 07:48:17 51°18.205 2°51.476 7.6 289 5.2 102460 81
2003-03-21 07:48:21 51°18.208 2°51.45 8.2 283 5.2 102460 81
2003-03-21 07:48:27 51°18.212 2°51.411 7.9 283 5.2 102460 81
2003-03-21 07:48:31 51°18.214 2°51.384 8.2 288 5.2 102450 81
2003-03-21 07:48:37 51°18.216 2°51.344 7.6 283 5.2 102450 81
2003-03-21 07:48:41 51°18.217 2°51.318 6.8 284 5.2 102460 81
2003-03-21 07:48:47 51°18.219 2°51.278 7.2 283 5.2 102460 81
2003-03-21 07:48:52 51°18.219 2°51.245 8.6 280 5.2 102460 81
2003-03-21 07:48:57 51°18.22 2°51.212 6.8 283 5.2 102460 81
2003-03-21 07:49:01 51°18.22 2°51.185 6.4 285 5.2 102460 81
2003-03-21 07:49:06 51°18.22 2°51.151 5.8 286 5.2 102460 81
2003-03-21 07:49:12 51°18.22 2°51.111 7.5 282 5.2 102460 81
2003-03-21 07:49:17 51°18.22 2°51.078 7.1 292 5.2 102460 81
2003-03-21 07:49:21 51°18.22 2°51.051 7.9 285 5.2 102470 81
2003-03-21 07:49:27 51°18.221 2°51.011 7.8 282 5.2 102470 81
2003-03-21 07:49:32 51°18.224 2°50.978 7.2 290 5.2 102470 81
2003-03-21 07:49:37 51°18.228 2°50.945 8.2 289 5.2 102470 81
2003-03-21 07:49:41 51°18.23 2°50.919 8.5 292 5.2 102470 81
2003-03-21 07:49:47 51°18.236 2°50.88 8.8 291 5.2 102470 81
2003-03-21 07:49:52 51°18.241 2°50.848 9.4 304 5.2 102460 81
2003-03-21 07:49:57 51°18.247 2°50.817 10.9 302 5.2 102460 81
2003-03-21 07:50:01 51°18.253 2°50.793 10.7 303 5.2 102460 81
2003-03-21 07:50:07 51°18.263 2°50.757 11.1 297 5.2 102460 81
2003-03-21 07:50:11 51°18.27 2°50.733 12.4 298 5.2 102460 81
2003-03-21 07:50:17 51°18.282 2°50.7 11.8 303 5.2 102460 81
2003-03-21 07:50:21 51°18.291 2°50.678 12 305 5.2 102460 81
2003-03-21 07:50:27 51°18.306 2°50.648 10.9 314 5.2 102460 81
2003-03-21 07:50:32 51°18.319 2°50.624 13.4 314 5.2 102460 81
2003-03-21 07:50:37 51°18.333 2°50.602 12.7 312 5.2 102460 81
2003-03-21 07:50:41 51°18.344 2°50.584 12.6 315 5.2 102450 81
2003-03-21 07:50:47 51°18.362 2°50.559 13 318 5.2 102450 81
2003-03-21 07:50:52 51°18.377 2°50.539 13 315 5.2 102450 81
2003-03-21 07:50:57 51°18.392 2°50.52 12.7 318 5.2 102450 81
2003-03-21 07:51:01 51°18.405 2°50.506 13 317 5.2 102440 81
2003-03-21 07:51:07 51°18.424 2°50.486 13.7 317 5.2 102440 81
2003-03-21 07:51:12 51°18.441 2°50.471 13.4 320 5.3 102440 81
2003-03-21 07:51:17 51°18.458 2°50.457 14.7 321 5.3 102440 81
2003-03-21 07:51:21 51°18.472 2°50.448 14.8 324 5.3 102440 81
2003-03-21 07:51:27 51°18.493 2°50.435 14.7 325 5.3 102440 81
2003-03-21 07:51:32 51°18.511 2°50.425 15.7 327 5.3 102430 81
2003-03-21 07:51:37 51°18.529 2°50.417 14.7 331 5.3 102430 81
2003-03-21 07:51:40 51°18.54 2°50.414 16.3 330 5.3 102440 81
2003-03-21 07:51:47 51°18.565 2°50.407 15.3 331 5.3 102440 81
2003-03-21 07:51:51 51°18.579 2°50.404 15.9 332 5.3 102440 81
2003-03-21 07:51:57 51°18.602 2°50.4 14.7 335 5.3 102440 81
2003-03-21 07:52:01 51°18.616 2°50.398 15.5 339 5.3 102440 81
2003-03-21 07:52:07 51°18.639 2°50.395 16.2 332 5.3 102440 81
2003-03-21 07:52:12 51°18.657 2°50.394 15.6 335 5.3 102440 81
2003-03-21 07:52:17 51°18.676 2°50.392 15.8 333 5.3 102440 81
2003-03-21 07:52:21 51°18.69 2°50.391 15.6 334 5.3 102440 81
2003-03-21 07:52:27 51°18.712 2°50.39 16.1 334 5.3 102440 81
2003-03-21 07:52:31 51°18.727 2°50.389 15.9 334 5.3 102440 81
2003-03-21 07:52:36 51°18.745 2°50.388 15.9 337 5.3 102440 81
2003-03-21 07:52:41 51°18.763 2°50.387 15.9 336 5.3 102440 81
2003-03-21 07:52:47 51°18.785 2°50.387 15.1 334 5.3 102440 81
2003-03-21 07:52:52 51°18.803 2°50.385 15.1 337 5.3 102440 81
2003-03-21 07:52:57 51°18.821 2°50.385 16 338 5.3 102440 81
2003-03-21 07:53:01 51°18.836 2°50.385 16.5 335 5.3 102440 81
2003-03-21 07:53:07 51°18.859 2°50.384 15.1 335 5.3 102440 81
2003-03-21 07:53:12 51°18.877 2°50.382 15.1 335 5.3 102440 81
2003-03-21 07:53:17 51°18.895 2°50.381 15.8 335 5.3 102440 81
2003-03-21 07:53:21 51°18.91 2°50.381 15.6 336 5.3 102440 81
2003-03-21 07:53:27 51°18.932 2°50.379 15 337 5.3 102440 81
2003-03-21 07:53:31 51°18.946 2°50.379 15.3 337 5.3 102440 82
2003-03-21 07:53:37 51°18.968 2°50.377 16.1 330 5.3 102440 82
2003-03-21 07:53:41 51°18.982 2°50.376 16 323 5.3 102440 82
2003-03-21 07:53:47 51°19.004 2°50.372 15.1 319 5.3 102440 82
2003-03-21 07:53:52 51°19.022 2°50.367 14.3 317 5.3 102440 82
2003-03-21 07:53:57 51°19.04 2°50.36 14.3 313 5.3 102440 82
2003-03-21 07:54:01 51°19.054 2°50.352 14.4 310 5.3 102430 82
2003-03-21 07:54:07 51°19.076 2°50.341 13 312 5.3 102430 82
2003-03-21 07:54:11 51°19.089 2°50.331 13 309 5.3 102430 82
2003-03-21 07:54:17 51°19.11 2°50.314 13.3 308 5.3 102430 82
2003-03-21 07:54:21 51°19.123 2°50.303 12.4 307 5.3 102430 82
2003-03-21 07:54:27 51°19.143 2°50.283 12.5 308 5.3 102430 82
2003-03-21 07:54:31 51°19.156 2°50.27 13 303 5.3 102440 82
2003-03-21 07:54:37 51°19.174 2°50.248 11.9 299 5.3 102440 82
2003-03-21 07:54:41 51°19.186 2°50.232 10.6 294 5.3 102440 82
2003-03-21 07:54:47 51°19.203 2°50.205 10.8 297 5.3 102440 82
2003-03-21 07:54:52 51°19.215 2°50.18 9.5 295 5.2 102440 82
2003-03-21 07:54:57 51°19.226 2°50.153 7.7 288 5.2 102440 82
2003-03-21 07:55:01 51°19.234 2°50.13 8 285 5.2 102450 82
2003-03-21 07:55:07 51°19.243 2°50.094 8.6 279 5.2 102450 82
2003-03-21 07:55:12 51°19.252 2°50.064 8.2 278 5.2 102450 82
2003-03-21 07:55:17 51°19.258 2°50.033 6.1 280 5.2 102450 82
2003-03-21 07:55:21 51°19.264 2°50.008 6.2 278 5.2 102460 82
2003-03-21 07:55:27 51°19.27 2°49.97 6.7 273 5.2 102460 82
2003-03-21 07:55:31 51°19.274 2°49.944 7.1 273 5.1 102470 82
2003-03-21 07:55:37 51°19.278 2°49.905 5.8 281 5.1 102470 82
2003-03-21 07:55:41 51°19.282 2°49.879 6.4 265 5.1 102480 82
2003-03-21 07:55:47 51°19.286 2°49.838 5.5 264 5.1 102480 82
2003-03-21 07:55:51 51°19.287 2°49.811 5.9 277 5.2 102480 82
2003-03-21 07:55:57 51°19.289 2°49.77 5.8 273 5.2 102480 82
2003-03-21 07:56:01 51°19.289 2°49.743 6.3 266 5.2 102480 83
2003-03-21 07:56:07 51°19.291 2°49.701 4.8 269 5.2 102480 83
2003-03-21 07:56:11 51°19.291 2°49.674 5.9 273 5.1 102480 83
2003-03-21 07:56:17 51°19.292 2°49.633 5.5 270 5.1 102480 83
2003-03-21 07:56:21 51°19.292 2°49.605 5.6 269 5.2 102480 83
2003-03-21 07:56:27 51°19.292 2°49.564 5.4 264 5.2 102480 83
2003-03-21 07:56:32 51°19.291 2°49.529 4.6 266 5.1 102480 83
2003-03-21 07:56:37 51°19.29 2°49.494 5.2 278 5.1 102480 83
2003-03-21 07:56:41 51°19.29 2°49.467 3.2 280 5.1 102490 83
2003-03-21 07:56:47 51°19.289 2°49.425 5.4 274 5.1 102490 83
2003-03-21 07:56:52 51°19.289 2°49.39 4.6 272 5.1 102480 83
2003-03-21 07:56:57 51°19.289 2°49.355 3.6 267 5.1 102480 83
2003-03-21 07:57:01 51°19.287 2°49.328 3.6 262 5.1 102490 83
2003-03-21 07:57:07 51°19.286 2°49.287 3.6 257 5.1 102490 83
2003-03-21 07:57:11 51°19.285 2°49.259 3.8 261 5.1 102480 83
2003-03-21 07:57:17 51°19.284 2°49.218 3.6 272 5.1 102480 83
2003-03-21 07:57:21 51°19.282 2°49.191 2.9 285 5.1 102490 83
2003-03-21 07:57:27 51°19.281 2°49.149 4.8 272 5.1 102490 83
2003-03-21 07:57:32 51°19.28 2°49.114 4.7 271 5.1 102490 83
2003-03-21 07:57:36 51°19.279 2°49.086 3.8 274 5.1 102490 83
2003-03-21 07:57:41 51°19.278 2°49.052 4.7 274 5.1 102490 83
2003-03-21 07:57:47 51°19.277 2°49.011 3.2 277 5.1 102490 83
2003-03-21 07:57:51 51°19.275 2°48.983 5.9 272 5.1 102490 83
2003-03-21 07:57:57 51°19.274 2°48.942 4.6 275 5.1 102490 83
2003-03-21 07:58:01 51°19.272 2°48.914 5.3 268 5.1 102490 83
2003-03-21 07:58:07 51°19.271 2°48.872 4.3 265 5.1 102490 83
2003-03-21 07:58:11 51°19.27 2°48.845 3.9 281 5.1 102490 83
2003-03-21 07:58:16 51°19.268 2°48.81 5.2 264 5.1 102490 83
2003-03-21 07:58:21 51°19.267 2°48.775 4.3 268 5.1 102490 83
2003-03-21 07:58:27 51°19.265 2°48.734 5.6 278 5.1 102490 83
2003-03-21 07:58:31 51°19.265 2°48.706 6.3 275 5.1 102480 83
2003-03-21 07:58:36 51°19.264 2°48.671 6.8 278 5.1 102480 83
2003-03-21 07:58:41 51°19.265 2°48.636 5.3 289 5.1 102480 83
2003-03-21 07:58:47 51°19.268 2°48.594 6.2 286 5.1 102480 83
2003-03-21 07:58:52 51°19.272 2°48.562 7 281 5.1 102490 83
2003-03-21 07:58:57 51°19.28 2°48.53 6.4 291 5.1 102490 83
2003-03-21 07:59:01 51°19.285 2°48.505 7 285 5.1 102490 83
2003-03-21 07:59:07 51°19.295 2°48.468 6.8 289 5.1 102490 83
2003-03-21 07:59:12 51°19.304 2°48.437 8.2 293 5.1 102480 83
2003-03-21 07:59:17 51°19.314 2°48.407 9.1 291 5.1 102480 83
2003-03-21 07:59:21 51°19.321 2°48.384 8.9 290 5.1 102480 83
2003-03-21 07:59:26 51°19.331 2°48.355 8.9 291 5.1 102480 83
2003-03-21 07:59:32 51°19.345 2°48.321 9 291 5.1 102480 83
2003-03-21 07:59:37 51°19.357 2°48.294 9 295 5.1 102480 83
2003-03-21 07:59:41 51°19.367 2°48.273 10.2 307 5.1 102480 83
2003-03-21 07:59:47 51°19.382 2°48.242 11 301 5.1 102480 83
2003-03-21 07:59:52 51°19.396 2°48.218 11.1 305 5.1 102480 83
2003-03-21 07:59:57 51°19.411 2°48.194 10.7 309 5.1 102480 83
2003-03-21 08:00:01 51°19.422 2°48.176 11 307 5.1 102470 84
2003-03-21 08:00:07 51°19.438 2°48.151 12.2 311 5.1 102470 84
2003-03-21 08:00:12 51°19.453 2°48.131 13.2 309 5.1 102460 84
2003-03-21 08:00:17 51°19.468 2°48.112 13.3 314 5.1 102460 84
2003-03-21 08:00:21 51°19.481 2°48.099 13.6 313 5.1 102460 84
2003-03-21 08:00:27 51°19.501 2°48.08 13.6 316 5.1 102460 84
2003-03-21 08:00:32 51°19.519 2°48.067 14.4 318 5.1 102460 84
2003-03-21 08:00:37 51°19.536 2°48.056 14.9 320 5.1 102460 84
2003-03-21 08:00:41 51°19.551 2°48.048 15 322 5.2 102450 84
2003-03-21 08:00:47 51°19.572 2°48.036 15 321 5.2 102450 84
2003-03-21 08:00:50 51°19.583 2°48.032 13.8 322 5.1 102450 83
2003-03-21 08:00:57 51°19.608 2°48.021 12.5 326 5.1 102450 83
2003-03-21 08:01:01 51°19.622 2°48.019 13.7 325 5.1 102450 83
2003-03-21 08:01:07 51°19.644 2°48.013 14.7 321 5.1 102450 83
2003-03-21 08:01:11 51°19.658 2°48.009 13.3 329 5.1 102450 83
2003-03-21 08:01:17 51°19.679 2°48.002 13.8 327 5.1 102450 83
2003-03-21 08:01:21 51°19.692 2°47.997 14.7 326 5.2 102450 83
2003-03-21 08:01:27 51°19.713 2°47.991 14 329 5.2 102450 83
2003-03-21 08:01:32 51°19.731 2°47.986 14 324 5.2 102450 83
2003-03-21 08:01:37 51°19.75 2°47.982 13.7 330 5.2 102450 83
2003-03-21 08:01:42 51°19.768 2°47.975 15.4 325 5.2 102460 83
2003-03-21 08:01:47 51°19.786 2°47.97 14.7 326 5.2 102460 83
2003-03-21 08:01:52 51°19.804 2°47.965 15.3 327 5.2 102450 83
2003-03-21 08:01:57 51°19.822 2°47.961 15.2 323 5.2 102450 83
2003-03-21 08:02:01 51°19.836 2°47.957 14.5 323 5.2 102460 82
2003-03-21 08:02:07 51°19.858 2°47.952 14.8 327 5.2 102460 82
2003-03-21 08:02:11 51°19.873 2°47.948 15.3 326 5.2 102440 82
2003-03-21 08:02:17 51°19.896 2°47.942 13.5 330 5.2 102440 82
2003-03-21 08:02:21 51°19.91 2°47.939 14.7 332 5.2 102450 82
2003-03-21 08:02:27 51°19.932 2°47.933 14.4 329 5.2 102450 82
2003-03-21 08:02:31 51°19.946 2°47.928 13.4 330 5.2 102450 82
2003-03-21 08:02:37 51°19.968 2°47.922 15.6 329 5.2 102450 82
2003-03-21 08:02:41 51°19.982 2°47.918 15.5 331 5.2 102450 82
2003-03-21 08:02:47 51°20.003 2°47.912 14.6 331 5.2 102450 82
2003-03-21 08:02:51 51°20.018 2°47.907 15.3 329 5.3 102450 82
2003-03-21 08:02:57 51°20.042 2°47.901 14.7 329 5.3 102450 82
2003-03-21 08:03:01 51°20.058 2°47.897 13.9 327 5.3 102450 82
2003-03-21 08:03:07 51°20.079 2°47.889 13.2 327 5.3 102450 82
2003-03-21 08:03:11 51°20.094 2°47.881 15.8 325 5.3 102450 82
2003-03-21 08:03:17 51°20.115 2°47.868 14.7 321 5.3 102450 82
2003-03-21 08:03:21 51°20.129 2°47.858 14.4 320 5.3 102450 82
2003-03-21 08:03:27 51°20.148 2°47.842 14.3 315 5.3 102450 82
2003-03-21 08:03:31 51°20.161 2°47.83 13.9 311 5.3 102450 82
2003-03-21 08:03:37 51°20.18 2°47.809 13.2 309 5.3 102450 82
2003-03-21 08:03:41 51°20.192 2°47.794 12.4 311 5.3 102450 82
2003-03-21 08:03:47 51°20.21 2°47.77 12.1 305 5.3 102450 82
2003-03-21 08:03:51 51°20.222 2°47.753 11.9 305 5.3 102450 82
2003-03-21 08:03:57 51°20.239 2°47.727 12.8 302 5.3 102450 82
2003-03-21 08:04:02 51°20.253 2°47.704 12.3 306 5.3 102450 82
2003-03-21 08:04:07 51°20.267 2°47.68 11.2 303 5.3 102450 82
2003-03-21 08:04:11 51°20.277 2°47.66 11.4 297 5.2 102450 82
2003-03-21 08:04:17 51°20.291 2°47.628 11.1 295 5.2 102450 82
2003-03-21 08:04:21 51°20.3 2°47.606 10.2 293 5.3 102450 82
2003-03-21 08:04:27 51°20.313 2°47.574 8.6 288 5.3 102450 82
2003-03-21 08:04:31 51°20.321 2°47.551 10 294 5.3 102460 82
2003-03-21 08:04:37 51°20.332 2°47.515 9.8 296 5.3 102460 82
2003-03-21 08:04:41 51°20.338 2°47.49 8.6 285 5.3 102460 82
2003-03-21 08:04:47 51°20.348 2°47.452 8.8 287 5.3 102460 82
2003-03-21 08:04:50 51°20.352 2°47.433 8.3 287 5.3 102470 82
2003-03-21 08:04:57 51°20.362 2°47.387 7.7 283 5.3 102470 82
2003-03-21 08:05:01 51°20.367 2°47.361 8.3 279 5.3 102460 82
2003-03-21 08:05:07 51°20.375 2°47.321 7.1 281 5.3 102460 82
2003-03-21 08:05:12 51°20.381 2°47.289 8.7 277 5.2 102470 82
2003-03-21 08:05:17 51°20.384 2°47.255 8.7 275 5.2 102470 82
2003-03-21 08:05:21 51°20.388 2°47.228 8.1 274 5.2 102470 82
2003-03-21 08:05:27 51°20.391 2°47.187 6.5 280 5.2 102470 82
2003-03-21 08:05:31 51°20.392 2°47.16 5.9 279 5.2 102470 82
2003-03-21 08:05:37 51°20.393 2°47.119 7.8 276 5.2 102470 82
2003-03-21 08:05:41 51°20.394 2°47.091 8.1 274 5.2 102480 82
2003-03-21 08:05:47 51°20.397 2°47.05 6.2 282 5.2 102480 82
2003-03-21 08:05:51 51°20.398 2°47.022 6.5 278 5.2 102480 82
2003-03-21 08:05:57 51°20.398 2°46.98 7.3 277 5.2 102480 82
2003-03-21 08:06:01 51°20.399 2°46.949 6.1 271 5.2 102480 82
2003-03-21 08:06:07 51°20.399 2°46.906 6.6 280 5.2 102480 82
2003-03-21 08:06:12 51°20.401 2°46.869 6.8 279 5.2 102480 82
2003-03-21 08:06:17 51°20.4 2°46.835 6.3 278 5.2 102480 82
2003-03-21 08:06:20 51°20.4 2°46.814 8.1 275 5.2 102480 82
2003-03-21 08:06:27 51°20.401 2°46.768 7.6 270 5.2 102480 82
2003-03-21 08:06:31 51°20.402 2°46.741 7.8 270 5.2 102490 82
2003-03-21 08:06:37 51°20.403 2°46.702 7.4 268 5.2 102490 82
2003-03-21 08:06:41 51°20.404 2°46.675 6.3 277 5.2 102490 82
2003-03-21 08:06:47 51°20.405 2°46.634 6.7 276 5.2 102490 82
2003-03-21 08:06:52 51°20.406 2°46.599 7 273 5.2 102490 82
2003-03-21 08:06:57 51°20.407 2°46.565 5.9 272 5.2 102490 82
2003-03-21 08:07:02 51°20.409 2°46.531 6.5 271 5.2 102480 82
2003-03-21 08:07:07 51°20.409 2°46.497 5.7 280 5.2 102480 82
2003-03-21 08:07:11 51°20.41 2°46.47 5.1 287 5.2 102480 82
2003-03-21 08:07:16 51°20.41 2°46.436 6 266 5.2 102480 82
2003-03-21 08:07:21 51°20.411 2°46.402 5.9 277 5.2 102490 82
2003-03-21 08:07:27 51°20.411 2°46.361 6.3 278 5.2 102490 82
2003-03-21 08:07:31 51°20.412 2°46.334 7.3 275 5.2 102490 82
2003-03-21 08:07:37 51°20.412 2°46.292 7.5 269 5.2 102490 82
2003-03-21 08:07:42 51°20.414 2°46.258 5.7 278 5.2 102480 82
2003-03-21 08:07:47 51°20.414 2°46.223 7.2 275 5.2 102480 82
2003-03-21 08:07:51 51°20.415 2°46.195 5.4 277 5.2 102490 82
2003-03-21 08:07:57 51°20.416 2°46.154 4.8 281 5.2 102490 82
2003-03-21 08:08:01 51°20.416 2°46.127 6.7 276 5.2 102490 82
2003-03-21 08:08:07 51°20.417 2°46.085 6.7 276 5.2 102490 82
2003-03-21 08:08:11 51°20.418 2°46.057 5.3 287 5.2 102480 82
2003-03-21 08:08:17 51°20.419 2°46.016 6 271 5.2 102480 82
2003-03-21 08:08:21 51°20.42 2°45.988 4.8 264 5.2 102480 82
2003-03-21 08:08:27 51°20.419 2°45.947 5.8 269 5.2 102480 82
2003-03-21 08:08:32 51°20.418 2°45.912 4.3 281 5.2 102490 82
2003-03-21 08:08:37 51°20.417 2°45.877 6 274 5.2 102490 82
2003-03-21 08:08:41 51°20.416 2°45.849 4.8 286 5.2 102480 82
2003-03-21 08:08:47 51°20.415 2°45.808 5.2 274 5.2 102480 82
2003-03-21 08:08:52 51°20.412 2°45.774 5.1 278 5.2 102490 82
2003-03-21 08:08:57 51°20.41 2°45.74 5 273 5.2 102490 82
2003-03-21 08:09:01 51°20.409 2°45.712 5.2 270 5.2 102490 82
2003-03-21 08:09:07 51°20.406 2°45.672 5.1 279 5.2 102490 82
2003-03-21 08:09:11 51°20.405 2°45.645 5.9 276 5.2 102490 82
2003-03-21 08:09:17 51°20.402 2°45.605 5.7 273 5.2 102490 82
2003-03-21 08:09:21 51°20.4 2°45.578 6.7 272 5.2 102490 82
2003-03-21 08:09:27 51°20.398 2°45.539 5.5 265 5.2 102490 82
2003-03-21 08:09:32 51°20.395 2°45.506 5.6 264 5.2 102490 82
2003-03-21 08:09:37 51°20.393 2°45.473 5.6 270 5.2 102490 82
2003-03-21 08:09:42 51°20.39 2°45.44 5.4 263 5.2 102490 82
2003-03-21 08:09:47 51°20.388 2°45.407 5.5 261 5.2 102490 82
2003-03-21 08:09:52 51°20.387 2°45.374 5.2 263 5.2 102490 82
2003-03-21 08:09:57 51°20.384 2°45.34 5.6 259 5.2 102490 82
2003-03-21 08:10:01 51°20.383 2°45.314 5.7 256 5.2 102490 82
2003-03-21 08:10:07 51°20.38 2°45.273 5.8 258 5.2 102490 82
2003-03-21 08:10:12 51°20.378 2°45.24 5.3 271 5.2 102490 82
2003-03-21 08:10:17 51°20.376 2°45.206 5.5 277 5.2 102490 82
2003-03-21 08:10:21 51°20.374 2°45.179 5.5 270 5.2 102480 82
2003-03-21 08:10:27 51°20.372 2°45.139 5.6 264 5.2 102480 82
2003-03-21 08:10:31 51°20.37 2°45.112 4.6 270 5.2 102480 82
2003-03-21 08:10:37 51°20.367 2°45.072 4.8 261 5.2 102480 82
2003-03-21 08:10:42 51°20.365 2°45.038 4.6 261 5.2 102490 82
2003-03-21 08:10:47 51°20.362 2°45.004 3.6 250 5.2 102490 82
2003-03-21 08:10:51 51°20.359 2°44.978 3.5 251 5.2 102490 83
2003-03-21 08:10:57 51°20.353 2°44.938 2.4 255 5.2 102490 83
2003-03-21 08:11:01 51°20.348 2°44.911 3.4 257 5.2 102490 83
2003-03-21 08:11:07 51°20.341 2°44.872 2.2 225 5.2 102490 83
2003-03-21 08:11:11 51°20.334 2°44.847 1.7 217 5.2 102490 82
2003-03-21 08:11:17 51°20.324 2°44.81 2.5 251 5.2 102490 82
2003-03-21 08:11:21 51°20.317 2°44.785 1.8 266 5.2 102500 82
2003-03-21 08:11:27 51°20.304 2°44.75 2.2 230 5.2 102500 82
2003-03-21 08:11:31 51°20.297 2°44.725 1.3 216 5.2 102490 82
2003-03-21 08:11:37 51°20.283 2°44.69 0.8 216 5.2 102490 82
2003-03-21 08:11:41 51°20.275 2°44.667 0.9 270 5.2 102490 82
2003-03-21 08:11:47 51°20.261 2°44.632 0.8 283 5.2 102490 82
2003-03-21 08:11:52 51°20.25 2°44.603 1.7 279 5.2 102500 83
2003-03-21 08:11:57 51°20.238 2°44.574 1.3 328 5.2 102500 83
2003-03-21 08:12:02 51°20.227 2°44.545 1.3 332 5.2 102500 83
2003-03-21 08:12:07 51°20.215 2°44.517 0.8 310 5.2 102500 83
2003-03-21 08:12:12 51°20.204 2°44.487 1.1 294 5.2 102490 83
2003-03-21 08:12:17 51°20.191 2°44.459 1.5 273 5.2 102490 83
2003-03-21 08:12:21 51°20.183 2°44.435 1.3 260 5.3 102500 83
2003-03-21 08:12:27 51°20.169 2°44.4 1.3 263 5.3 102500 83
2003-03-21 08:12:31 51°20.161 2°44.376 1.1 241 5.3 102500 83
2003-03-21 08:12:37 51°20.147 2°44.341 1.5 225 5.3 102500 83
2003-03-21 08:12:41 51°20.139 2°44.317 1.4 226 5.3 102500 83
2003-03-21 08:12:47 51°20.125 2°44.283 1.2 237 5.3 102500 83
2003-03-21 08:12:52 51°20.115 2°44.252 1.2 227 5.3 102500 83
2003-03-21 08:12:57 51°20.103 2°44.223 1.4 240 5.3 102500 83
2003-03-21 08:13:01 51°20.095 2°44.2 1.5 253 5.3 102500 83
2003-03-21 08:13:07 51°20.083 2°44.164 1.5 233 5.3 102500 83
2003-03-21 08:13:11 51°20.074 2°44.14 2 241 5.3 102500 83
2003-03-21 08:13:17 51°20.061 2°44.104 1.9 232 5.3 102500 83
2003-03-21 08:13:21 51°20.052 2°44.081 1.6 225 5.3 102500 83
2003-03-21 08:13:27 51°20.04 2°44.045 1.6 213 5.3 102500 83
2003-03-21 08:13:32 51°20.028 2°44.015 1.5 206 5.3 102500 83
2003-03-21 08:13:37 51°20.018 2°43.985 1.7 200 5.3 102500 83
2003-03-21 08:13:41 51°20.009 2°43.962 1.3 199 5.3 102500 83
2003-03-21 08:13:47 51°19.997 2°43.926 1.6 192 5.3 102500 83
2003-03-21 08:13:52 51°19.986 2°43.898 1.6 208 5.3 102500 83
2003-03-21 08:13:57 51°19.975 2°43.868 1.3 224 5.3 102500 83
2003-03-21 08:14:01 51°19.967 2°43.844 1.4 253 5.3 102500 83
2003-03-21 08:14:07 51°19.954 2°43.809 1.7 265 5.3 102500 83
2003-03-21 08:14:12 51°19.944 2°43.778 1.6 291 5.3 102500 83
2003-03-21 08:14:17 51°19.933 2°43.748 1.7 268 5.3 102500 83
2003-03-21 08:14:21 51°19.926 2°43.723 1.7 268 5.3 102500 83
2003-03-21 08:14:27 51°19.912 2°43.688 2.1 265 5.3 102500 83
2003-03-21 08:14:32 51°19.902 2°43.657 1.6 259 5.3 102500 83
2003-03-21 08:14:37 51°19.892 2°43.627 1.8 265 5.3 102500 83
2003-03-21 08:14:41 51°19.883 2°43.603 2.2 243 5.3 102500 83
2003-03-21 08:14:47 51°19.87 2°43.568 2.4 257 5.3 102500 83
2003-03-21 08:14:52 51°19.86 2°43.538 1.9 241 5.3 102500 83
2003-03-21 08:14:57 51°19.849 2°43.509 2.3 249 5.3 102500 83
2003-03-21 08:15:01 51°19.841 2°43.484 2.2 238 5.3 102500 83
2003-03-21 08:15:07 51°19.827 2°43.449 2.1 253 5.3 102500 83
2003-03-21 08:15:11 51°19.819 2°43.424 1.9 252 5.3 102500 83
2003-03-21 08:15:17 51°19.806 2°43.388 2.4 246 5.3 102500 83
2003-03-21 08:15:21 51°19.798 2°43.364 2.1 247 5.3 102500 83
2003-03-21 08:15:27 51°19.786 2°43.327 1.9 255 5.3 102500 83
2003-03-21 08:15:32 51°19.775 2°43.296 1.3 253 5.3 102500 83
2003-03-21 08:15:37 51°19.764 2°43.266 1.8 266 5.3 102500 83
2003-03-21 08:15:41 51°19.757 2°43.241 1.1 267 5.3 102500 83
2003-03-21 08:15:47 51°19.744 2°43.204 0.7 286 5.3 102500 83
2003-03-21 08:15:52 51°19.734 2°43.173 1 266 5.3 102500 83
2003-03-21 08:15:57 51°19.722 2°43.143 0.9 252 5.3 102500 83
2003-03-21 08:16:02 51°19.712 2°43.112 1.5 262 5.3 102500 83
2003-03-21 08:16:07 51°19.702 2°43.082 1.7 271 5.3 102500 83
2003-03-21 08:16:12 51°19.692 2°43.051 1.7 269 5.3 102500 83
2003-03-21 08:16:17 51°19.681 2°43.021 1.9 250 5.3 102500 83
2003-03-21 08:16:21 51°19.673 2°42.997 1.8 241 5.3 102500 83
2003-03-21 08:16:27 51°19.66 2°42.961 1.6 236 5.3 102500 83
2003-03-21 08:16:32 51°19.65 2°42.931 1.4 229 5.3 102500 83
2003-03-21 08:16:37 51°19.639 2°42.901 2.1 229 5.3 102500 83
2003-03-21 08:16:41 51°19.631 2°42.877 1 241 5.3 102500 83
2003-03-21 08:16:47 51°19.618 2°42.84 1.7 237 5.3 102500 83
2003-03-21 08:16:51 51°19.609 2°42.816 0.8 237 5.3 102500 83
2003-03-21 08:16:57 51°19.597 2°42.78 1.5 291 5.3 102500 83
2003-03-21 08:17:01 51°19.589 2°42.754 1.6 293 5.3 102500 83
2003-03-21 08:17:07 51°19.576 2°42.719 1.6 283 5.3 102500 83
2003-03-21 08:17:11 51°19.568 2°42.694 1.4 322 5.3 102500 83
2003-03-21 08:17:17 51°19.556 2°42.659 2.1 267 5.3 102500 83
2003-03-21 08:17:22 51°19.545 2°42.63 2.5 268 5.3 102500 83
2003-03-21 08:17:27 51°19.535 2°42.6 1.9 279 5.3 102500 83
2003-03-21 08:17:32 51°19.525 2°42.569 3.5 278 5.3 102500 83
2003-03-21 08:17:37 51°19.515 2°42.538 3.4 272 5.3 102500 83
2003-03-21 08:17:42 51°19.507 2°42.506 4.2 260 5.3 102500 83
2003-03-21 08:17:47 51°19.499 2°42.474 3.9 259 5.3 102500 83
2003-03-21 08:17:51 51°19.493 2°42.448 4.4 266 5.3 102500 83
2003-03-21 08:17:57 51°19.487 2°42.408 4.2 269 5.3 102500 83
2003-03-21 08:18:02 51°19.481 2°42.375 5.6 272 5.3 102500 83
2003-03-21 08:18:07 51°19.476 2°42.341 5.5 272 5.3 102500 83
2003-03-21 08:18:12 51°19.473 2°42.307 4.7 267 5.3 102500 83
2003-03-21 08:18:17 51°19.469 2°42.273 6 271 5.3 102500 83
2003-03-21 08:18:21 51°19.468 2°42.246 5.3 265 5.3 102500 83
2003-03-21 08:18:27 51°19.466 2°42.205 6.9 272 5.3 102500 83
2003-03-21 08:18:31 51°19.466 2°42.177 5 288 5.3 102490 83
2003-03-21 08:18:37 51°19.466 2°42.137 5.6 279 5.3 102490 83
2003-03-21 08:18:41 51°19.467 2°42.11 7.3 271 5.3 102500 83
2003-03-21 08:18:47 51°19.47 2°42.069 7.4 274 5.3 102500 83
2003-03-21 08:18:52 51°19.473 2°42.035 7.4 275 5.3 102490 83
2003-03-21 08:18:57 51°19.476 2°42.002 8.5 272 5.3 102490 83
2003-03-21 08:19:01 51°19.48 2°41.976 7.2 278 5.3 102480 83
2003-03-21 08:19:07 51°19.485 2°41.935 6.3 284 5.3 102480 83
2003-03-21 08:19:12 51°19.491 2°41.903 8 278 5.3 102490 83
2003-03-21 08:19:17 51°19.498 2°41.87 7 282 5.3 102490 83
2003-03-21 08:19:21 51°19.502 2°41.844 6.4 281 5.2 102490 83
2003-03-21 08:19:27 51°19.512 2°41.807 7.6 290 5.2 102490 83
2003-03-21 08:19:31 51°19.517 2°41.781 8 280 5.3 102490 83
2003-03-21 08:19:37 51°19.528 2°41.746 8.6 291 5.3 102490 83
2003-03-21 08:19:41 51°19.535 2°41.722 7.7 288 5.3 102480 83
2003-03-21 08:19:47 51°19.548 2°41.688 7.6 292 5.3 102480 83
2003-03-21 08:19:52 51°19.559 2°41.66 9.6 294 5.3 102480 83
2003-03-21 08:19:57 51°19.571 2°41.632 10.1 300 5.3 102480 83
2003-03-21 08:20:01 51°19.581 2°41.61 10 296 5.3 102480 83
2003-03-21 08:20:07 51°19.595 2°41.577 11 297 5.3 102480 83
2003-03-21 08:20:11 51°19.605 2°41.556 11.4 296 5.3 102480 83
2003-03-21 08:20:17 51°19.62 2°41.524 11 294 5.3 102480 83
2003-03-21 08:20:21 51°19.63 2°41.502 10.5 292 5.3 102470 83
2003-03-21 08:20:27 51°19.646 2°41.472 10.1 303 5.3 102470 83
2003-03-21 08:20:32 51°19.658 2°41.445 11.3 300 5.3 102470 83
2003-03-21 08:20:37 51°19.671 2°41.419 11.9 298 5.3 102470 83
2003-03-21 08:20:42 51°19.684 2°41.392 10.8 301 5.3 102460 83
2003-03-21 08:20:47 51°19.696 2°41.366 11.3 298 5.3 102460 83
2003-03-21 08:20:52 51°19.709 2°41.339 10.9 304 5.3 102470 83
2003-03-21 08:20:57 51°19.722 2°41.313 11.6 297 5.3 102470 83
2003-03-21 08:21:02 51°19.735 2°41.286 10.9 298 5.3 102460 83
2003-03-21 08:21:07 51°19.748 2°41.26 11.9 298 5.3 102460 83
2003-03-21 08:21:11 51°19.758 2°41.239 11.6 297 5.3 102470 83
2003-03-21 08:21:17 51°19.774 2°41.208 11 297 5.3 102470 83
2003-03-21 08:21:22 51°19.787 2°41.182 11.4 301 5.3 102450 83
2003-03-21 08:21:27 51°19.801 2°41.156 12.1 301 5.3 102450 83
2003-03-21 08:21:32 51°19.814 2°41.131 11.6 298 5.2 102460 82
2003-03-21 08:21:37 51°19.828 2°41.105 11.6 302 5.2 102460 82
2003-03-21 08:21:41 51°19.839 2°41.085 11 300 5.3 102460 82
2003-03-21 08:21:47 51°19.856 2°41.057 12 302 5.3 102460 82
2003-03-21 08:21:50 51°19.865 2°41.042 12.2 301 5.3 102470 82
2003-03-21 08:21:57 51°19.886 2°41.011 11.9 305 5.3 102470 82
2003-03-21 08:22:02 51°19.902 2°40.989 12.2 305 5.3 102470 82
2003-03-21 08:22:07 51°19.918 2°40.97 13.6 306 5.3 102470 82
2003-03-21 08:22:11 51°19.931 2°40.954 13.5 306 5.3 102460 82
2003-03-21 08:22:17 51°19.951 2°40.932 12.9 306 5.3 102460 82
2003-03-21 08:22:21 51°19.964 2°40.918 12.4 309 5.2 102460 82
2003-03-21 08:22:27 51°19.985 2°40.898 12.8 318 5.2 102460 82
2003-03-21 08:22:32 51°20.002 2°40.882 13.7 314 5.2 102460 82
2003-03-21 08:22:37 51°20.019 2°40.866 13.3 312 5.2 102460 82
2003-03-21 08:22:42 51°20.036 2°40.849 13.6 311 5.2 102460 82
2003-03-21 08:22:47 51°20.054 2°40.833 13 313 5.2 102460 82
2003-03-21 08:22:52 51°20.071 2°40.818 13.5 308 5.2 102460 82
2003-03-21 08:22:57 51°20.089 2°40.803 12.8 306 5.2 102460 82
2003-03-21 08:23:02 51°20.106 2°40.787 11.8 317 5.2 102460 82
2003-03-21 08:23:07 51°20.123 2°40.772 12.4 314 5.2 102460 82
2003-03-21 08:23:11 51°20.137 2°40.759 12.9 316 5.2 102450 82
2003-03-21 08:23:17 51°20.157 2°40.74 12.8 315 5.2 102450 82
2003-03-21 08:23:21 51°20.171 2°40.727 13.7 312 5.2 102460 82
2003-03-21 08:23:27 51°20.192 2°40.709 12.8 312 5.2 102460 82
2003-03-21 08:23:32 51°20.21 2°40.694 12.9 315 5.3 102470 82
2003-03-21 08:23:37 51°20.227 2°40.679 13.3 313 5.3 102470 82
2003-03-21 08:23:41 51°20.241 2°40.666 13 311 5.2 102460 82
2003-03-21 08:23:47 51°20.261 2°40.647 12.7 307 5.2 102460 82
2003-03-21 08:23:50 51°20.271 2°40.636 11.6 309 5.2 102460 82
2003-03-21 08:23:57 51°20.294 2°40.608 11.5 308 5.2 102460 82
2003-03-21 08:24:01 51°20.306 2°40.592 12.2 304 5.2 102470 82
2003-03-21 08:24:07 51°20.323 2°40.566 10.4 307 5.2 102470 82
2003-03-21 08:24:11 51°20.334 2°40.547 11.8 306 5.2 102460 82
2003-03-21 08:24:17 51°20.351 2°40.518 11.2 301 5.2 102460 82
2003-03-21 08:24:22 51°20.363 2°40.492 11 298 5.3 102470 82
2003-03-21 08:24:27 51°20.374 2°40.465 10.9 294 5.3 102470 82
2003-03-21 08:24:32 51°20.386 2°40.437 10.3 295 5.3 102470 83
2003-03-21 08:24:37 51°20.396 2°40.408 8.4 294 5.3 102470 83
2003-03-21 08:24:41 51°20.402 2°40.383 8.4 285 5.3 102460 82
2003-03-21 08:24:47 51°20.411 2°40.346 7.3 284 5.3 102460 82
2003-03-21 08:24:50 51°20.415 2°40.326 7.4 280 5.2 102470 82
2003-03-21 08:24:57 51°20.424 2°40.282 7.8 280 5.2 102470 82
2003-03-21 08:25:01 51°20.431 2°40.256 7.5 276 5.2 102470 82
2003-03-21 08:25:07 51°20.436 2°40.217 6.9 275 5.2 102470 82
2003-03-21 08:25:11 51°20.437 2°40.193 6.7 271 5.2 102490 82
2003-03-21 08:25:17 51°20.438 2°40.156 5.5 271 5.2 102490 82
2003-03-21 08:25:21 51°20.438 2°40.131 5.8 263 5.2 102490 82
2003-03-21 08:25:27 51°20.437 2°40.093 5.4 265 5.2 102490 82
2003-03-21 08:25:32 51°20.438 2°40.063 4.5 260 5.2 102490 82
2003-03-21 08:25:37 51°20.437 2°40.032 5.2 260 5.2 102490 82
2003-03-21 08:25:42 51°20.438 2°40.002 4.7 261 5.2 102490 82
2003-03-21 08:25:47 51°20.437 2°39.972 5.3 255 5.2 102490 82
2003-03-21 08:25:52 51°20.437 2°39.941 4.7 257 5.2 102500 82
2003-03-21 08:25:57 51°20.436 2°39.911 5 267 5.2 102500 82
2003-03-21 08:26:01 51°20.436 2°39.887 4.7 252 5.2 102520 82
2003-03-21 08:26:07 51°20.434 2°39.852 5 247 5.2 102520 82
2003-03-21 08:26:12 51°20.434 2°39.824 4.2 251 5.2 102510 82
2003-03-21 08:26:17 51°20.433 2°39.798 4.3 250 5.2 102510 82
2003-03-21 08:26:21 51°20.432 2°39.778 4.9 253 5.2 102510 82
2003-03-21 08:26:27 51°20.431 2°39.749 5.2 259 5.2 102510 82
2003-03-21 08:26:31 51°20.431 2°39.731 4.9 237 5.2 102530 82
2003-03-21 08:26:37 51°20.43 2°39.704 4.9 233 5.2 102530 82
2003-03-21 08:26:41 51°20.429 2°39.687 6.3 238 5.2 102530 82
2003-03-21 08:26:47 51°20.428 2°39.662 6.5 232 5.2 102530 82
2003-03-21 08:26:52 51°20.427 2°39.641 5.2 243 5.2 102510 83
2003-03-21 08:26:57 51°20.425 2°39.621 7.5 233 5.2 102510 83
2003-03-21 08:27:01 51°20.425 2°39.606 8.6 206 5.2 102520 83
2003-03-21 08:27:07 51°20.424 2°39.583 6.6 228 5.2 102520 83
2003-03-21 08:27:12 51°20.423 2°39.565 7.6 231 5.2 102520 83
2003-03-21 08:27:17 51°20.422 2°39.546 6.7 226 5.2 102520 83
2003-03-21 08:27:21 51°20.421 2°39.532 6.2 242 5.2 102520 83
2003-03-21 08:27:27 51°20.42 2°39.511 7.4 229 5.2 102520 83
2003-03-21 08:27:32 51°20.419 2°39.493 6.9 323 5.3 102510 83
2003-03-21 08:27:37 51°20.418 2°39.476 5.2 350 5.3 102510 83
2003-03-21 08:27:42 51°20.417 2°39.458 4.1 118 5.3 102520 83
2003-03-21 08:27:47 51°20.417 2°39.442 6.7 221 5.3 102520 83
2003-03-21 08:27:51 51°20.416 2°39.428 6.1 218 5.2 102520 83
2003-03-21 08:27:57 51°20.415 2°39.408 6.4 215 5.2 102520 83
2003-03-21 08:28:01 51°20.414 2°39.395 6.3 217 5.3 102510 83
2003-03-21 08:28:07 51°20.413 2°39.375 6.9 208 5.3 102510 83
2003-03-21 08:28:11 51°20.412 2°39.363 5.1 222 5.3 102520 83
2003-03-21 08:28:17 51°20.411 2°39.343 6.1 223 5.3 102520 83
2003-03-21 08:28:21 51°20.411 2°39.331 7 218 5.3 102520 83
2003-03-21 08:28:27 51°20.409 2°39.314 5.9 214 5.3 102520 83
2003-03-21 08:28:32 51°20.409 2°39.299 6.5 231 5.3 102520 83
2003-03-21 08:28:37 51°20.408 2°39.284 5.7 287 5.3 102520 83
2003-03-21 08:28:41 51°20.407 2°39.273 6.4 225 5.3 102510 83
2003-03-21 08:28:47 51°20.406 2°39.255 7.1 230 5.3 102510 83
2003-03-21 08:28:50 51°20.406 2°39.246 7.2 229 5.3 102520 83
2003-03-21 08:28:57 51°20.404 2°39.225 7.1 234 5.3 102520 83
2003-03-21 08:29:01 51°20.404 2°39.213 3.5 225 5.3 102510 83
2003-03-21 08:29:07 51°20.402 2°39.196 6.2 245 5.3 102510 83
2003-03-21 08:29:12 51°20.401 2°39.182 4.3 231 5.3 102520 83
2003-03-21 08:29:17 51°20.4 2°39.167 6.1 261 5.3 102520 83
2003-03-21 08:29:21 51°20.399 2°39.156 6.7 242 5.3 102500 83
2003-03-21 08:29:27 51°20.397 2°39.138 7.6 241 5.3 102500 83
2003-03-21 08:29:31 51°20.397 2°39.127 8.2 263 5.3 102510 83
2003-03-21 08:29:37 51°20.395 2°39.11 9.5 253 5.3 102510 83
2003-03-21 08:29:42 51°20.394 2°39.096 7.8 315 5.3 102500 83
2003-03-21 08:29:47 51°20.393 2°39.082 6.3 227 5.3 102500 83
2003-03-21 08:29:51 51°20.391 2°39.071 7.9 130 5.3 102500 83
2003-03-21 08:29:57 51°20.39 2°39.053 4.8 230 5.3 102500 83
2003-03-21 08:30:01 51°20.389 2°39.042 6.7 219 5.3 102500 83
2003-03-21 08:30:07 51°20.388 2°39.025 6.1 211 5.3 102500 83
2003-03-21 08:30:11 51°20.387 2°39.014 5.7 227 5.3 102500 83
2003-03-21 08:30:17 51°20.385 2°38.998 6.2 227 5.3 102500 83
2003-03-21 08:30:21 51°20.384 2°38.987 5.8 228 5.3 102500 83
2003-03-21 08:30:27 51°20.383 2°38.97 5.8 226 5.3 102500 83
2003-03-21 08:30:32 51°20.382 2°38.956 5.6 226 5.2 102500 83
2003-03-21 08:30:37 51°20.381 2°38.942 5.6 226 5.2 102500 83
2003-03-21 08:30:42 51°20.381 2°38.928 5.4 134 5.3 102500 83
2003-03-21 08:30:47 51°20.38 2°38.913 5 227 5.3 102500 83
2003-03-21 08:30:51 51°20.379 2°38.902 5.3 220 5.2 102510 83
2003-03-21 08:30:57 51°20.378 2°38.885 5.2 219 5.2 102510 83
2003-03-21 08:31:01 51°20.377 2°38.874 6.3 221 5.2 102510 82
2003-03-21 08:31:07 51°20.376 2°38.857 6.5 231 5.2 102510 82
2003-03-21 08:31:11 51°20.376 2°38.846 5.6 216 5.2 102500 82
2003-03-21 08:31:17 51°20.374 2°38.829 4.6 240 5.2 102500 82
2003-03-21 08:31:21 51°20.373 2°38.819 5.3 222 5.2 102500 82
2003-03-21 08:31:27 51°20.372 2°38.802 5.7 216 5.2 102500 82
2003-03-21 08:31:32 51°20.371 2°38.787 5 228 5.2 102510 82
2003-03-21 08:31:37 51°20.37 2°38.773 5.3 225 5.2 102510 82
2003-03-21 08:31:42 51°20.369 2°38.759 5.6 225 5.2 102510 83
2003-03-21 08:31:47 51°20.368 2°38.745 5.4 229 5.2 102510 83
2003-03-21 08:31:52 51°20.367 2°38.731 5.7 227 5.2 102510 82
2003-03-21 08:31:57 51°20.367 2°38.717 5.6 229 5.2 102510 82
2003-03-21 08:32:01 51°20.366 2°38.706 5.3 230 5.2 102500 82
2003-03-21 08:32:07 51°20.366 2°38.69 5.2 226 5.2 102500 82
2003-03-21 08:32:11 51°20.365 2°38.678 5.6 228 5.2 102500 82
2003-03-21 08:32:17 51°20.364 2°38.662 5.6 233 5.2 102500 82
2003-03-21 08:32:21 51°20.364 2°38.651 5.4 225 5.2 102500 82
2003-03-21 08:32:27 51°20.363 2°38.634 5.1 224 5.2 102500 82
2003-03-21 08:32:31 51°20.363 2°38.622 5.1 228 5.2 102500 82
2003-03-21 08:32:37 51°20.362 2°38.606 4.8 229 5.2 102500 82
2003-03-21 08:32:41 51°20.361 2°38.595 4.4 233 5.2 102500 82
2003-03-21 08:32:47 51°20.36 2°38.578 5.3 238 5.2 102500 82
2003-03-21 08:32:51 51°20.359 2°38.566 5.8 237 5.2 102500 82
2003-03-21 08:32:57 51°20.358 2°38.549 5.5 238 5.2 102500 82
2003-03-21 08:33:02 51°20.358 2°38.535 6 231 5.2 102500 82
2003-03-21 08:33:07 51°20.357 2°38.522 5.2 234 5.2 102500 82
2003-03-21 08:33:11 51°20.356 2°38.511 5 232 5.2 102510 82
2003-03-21 08:33:17 51°20.355 2°38.494 5.2 232 5.2 102510 82
2003-03-21 08:33:21 51°20.355 2°38.482 5.1 225 5.2 102510 82
2003-03-21 08:33:26 51°20.354 2°38.468 4.8 234 5.2 102510 82